createdAt,value
2023-02-09T00:02:23.950Z,5.85
2023-02-09T00:04:52.276Z,6.22
2023-02-09T00:07:20.636Z,5.68
2023-02-09T00:09:48.984Z,5.95
2023-02-09T00:12:34.630Z,6.32
2023-02-09T00:15:02.964Z,6.32
2023-02-09T00:17:33.650Z,6.20
2023-02-09T00:20:01.932Z,9.02
2023-02-09T00:22:30.599Z,6.40
2023-02-09T00:24:58.974Z,6.55
2023-02-09T00:27:27.298Z,6.43
2023-02-09T00:29:55.585Z,6.00
2023-02-09T00:32:23.908Z,5.75
2023-02-09T00:34:53.640Z,6.63
2023-02-09T00:37:21.968Z,6.32
2023-02-09T00:39:50.316Z,5.80
2023-02-09T00:42:18.589Z,5.95
2023-02-09T00:44:46.958Z,6.80
2023-02-09T00:47:15.247Z,5.03
2023-02-09T00:49:43.521Z,5.82
2023-02-09T00:52:13.192Z,6.40
2023-02-09T00:54:41.690Z,5.80
2023-02-09T00:57:09.984Z,6.00
2023-02-09T00:59:40.660Z,6.43
2023-02-09T01:02:09.165Z,6.28
2023-02-09T01:04:38.923Z,6.47
2023-02-09T01:07:07.281Z,5.78
2023-02-09T01:09:36.895Z,6.53
2023-02-09T01:12:06.199Z,7.05
2023-02-09T01:14:34.526Z,6.30
2023-02-09T01:17:02.984Z,6.20
2023-02-09T01:19:31.378Z,6.30
2023-02-09T01:21:59.703Z,5.82
2023-02-09T01:24:28.112Z,5.70
2023-02-09T01:26:58.225Z,5.25
2023-02-09T01:29:26.671Z,5.35
2023-02-09T01:31:55.126Z,5.32
2023-02-09T01:34:23.457Z,6.40
2023-02-09T01:36:51.766Z,6.85
2023-02-09T01:39:20.089Z,6.88
2023-02-09T01:41:48.470Z,6.03
2023-02-09T01:44:54.345Z,6.35
2023-02-09T01:47:24.135Z,7.25
2023-02-09T01:49:53.742Z,7.30
2023-02-09T01:52:25.023Z,7.10
2023-02-09T01:54:56.280Z,7.10
2023-02-09T01:57:26.801Z,6.07
2023-02-09T01:59:59.761Z,6.30
2023-02-09T02:02:29.648Z,6.88
2023-02-09T02:07:29.456Z,6.95
2023-02-09T02:09:58.463Z,6.57
2023-02-09T02:12:27.523Z,6.72
2023-02-09T02:14:55.849Z,7.15
2023-02-09T02:17:31.827Z,7.13
2023-02-09T02:20:27.289Z,6.22
2023-02-09T02:23:06.224Z,6.80
2023-02-09T02:26:06.762Z,6.35
2023-02-09T02:28:46.844Z,8.20
2023-02-09T02:31:46.933Z,7.50
2023-02-09T02:34:20.533Z,7.43
2023-02-09T02:37:01.518Z,6.63
2023-02-09T02:39:33.556Z,7.07
2023-02-09T02:42:22.082Z,6.50
2023-02-09T02:44:57.693Z,6.65
2023-02-09T02:47:28.953Z,6.72
2023-02-09T02:49:59.782Z,6.05
2023-02-09T02:52:28.087Z,7.07
2023-02-09T02:55:02.817Z,6.90
2023-02-09T02:57:32.976Z,6.35
2023-02-09T03:00:05.130Z,7.15
2023-02-09T03:02:37.855Z,6.57
2023-02-09T03:05:07.204Z,6.10
2023-02-09T03:07:35.567Z,6.05
2023-02-09T03:10:23.475Z,6.40
2023-02-09T03:13:00.652Z,6.32
2023-02-09T03:15:35.484Z,6.57
2023-02-09T03:18:15.767Z,6.60
2023-02-09T03:20:50.017Z,6.75
2023-02-09T03:23:27.497Z,6.20
2023-02-09T03:25:57.437Z,6.45
2023-02-09T03:28:28.622Z,6.05
2023-02-09T03:30:57.693Z,6.15
2023-02-09T03:33:29.752Z,6.20
2023-02-09T03:36:00.583Z,5.80
2023-02-09T03:38:28.972Z,7.15
2023-02-09T03:40:57.408Z,6.50
2023-02-09T03:43:46.344Z,6.68
2023-02-09T03:46:14.724Z,6.25
2023-02-09T03:48:44.575Z,6.50
2023-02-09T03:51:13.390Z,6.82
2023-02-09T03:53:41.741Z,6.60
2023-02-09T03:56:10.217Z,6.65
2023-02-09T03:58:38.618Z,6.40
2023-02-09T04:01:09.398Z,7.43
2023-02-09T04:03:39.751Z,6.95
2023-02-09T04:06:10.984Z,6.63
2023-02-09T04:08:39.332Z,7.00
2023-02-09T04:11:07.884Z,6.70
2023-02-09T04:13:36.267Z,6.65
2023-02-09T04:16:04.962Z,6.90
2023-02-09T04:18:33.239Z,6.75
2023-02-09T04:21:01.613Z,7.28
2023-02-09T04:23:31.271Z,7.18
2023-02-09T04:25:59.620Z,6.90
2023-02-09T04:28:27.997Z,6.32
2023-02-09T04:30:57.227Z,6.13
2023-02-09T04:33:25.894Z,6.80
2023-02-09T04:35:54.319Z,6.45
2023-02-09T04:38:23.048Z,6.78
2023-02-09T04:40:54.102Z,7.32
2023-02-09T04:43:22.845Z,6.90
2023-02-09T04:45:51.199Z,7.18
2023-02-09T04:48:20.933Z,6.65
2023-02-09T04:50:49.863Z,7.10
2023-02-09T04:53:18.886Z,6.90
2023-02-09T04:55:48.905Z,7.97
2023-02-09T04:58:37.138Z,7.18
2023-02-09T05:01:05.970Z,6.65
2023-02-09T05:03:34.501Z,7.38
2023-02-09T05:06:04.624Z,7.18
2023-02-09T05:08:33.307Z,7.18
2023-02-09T05:11:02.100Z,7.78
2023-02-09T05:13:31.804Z,7.22
2023-02-09T05:16:00.172Z,7.20
2023-02-09T05:18:28.508Z,7.78
2023-02-09T05:20:56.799Z,6.95
2023-02-09T05:23:25.090Z,6.50
2023-02-09T05:25:54.605Z,7.15
2023-02-09T05:28:22.933Z,8.13
2023-02-09T05:30:53.940Z,7.30
2023-02-09T05:33:22.833Z,7.07
2023-02-09T05:35:51.894Z,7.60
2023-02-09T05:38:20.539Z,7.50
2023-02-09T05:40:49.239Z,7.60
2023-02-09T05:43:17.849Z,7.47
2023-02-09T05:45:46.642Z,6.97
2023-02-09T05:48:16.397Z,7.65
2023-02-09T05:50:44.970Z,8.18
2023-02-09T05:53:15.211Z,7.65
2023-02-09T05:55:43.972Z,8.30
2023-02-09T05:58:12.323Z,7.07
2023-02-09T06:00:40.629Z,7.82
2023-02-09T06:03:08.979Z,7.68
2023-02-09T06:05:38.716Z,8.00
2023-02-09T06:08:07.078Z,8.88
2023-02-09T06:10:35.379Z,8.63
2023-02-09T06:13:03.786Z,7.88
2023-02-09T06:15:32.130Z,7.70
2023-02-09T06:18:00.463Z,7.80
2023-02-09T06:20:28.790Z,8.02
2023-02-09T06:22:58.613Z,7.75
2023-02-09T06:25:26.958Z,8.35
2023-02-09T06:27:55.328Z,7.82
2023-02-09T06:30:23.713Z,7.63
2023-02-09T06:32:52.029Z,8.75
2023-02-09T06:35:20.370Z,8.50
2023-02-09T06:37:48.784Z,8.10
2023-02-09T06:40:18.686Z,8.07
2023-02-09T06:42:47.008Z,8.20
2023-02-09T06:45:16.694Z,8.40
2023-02-09T06:47:46.055Z,8.13
2023-02-09T06:50:16.063Z,13.07
2023-02-09T06:52:44.696Z,10.43
2023-02-09T06:55:13.528Z,11.10
2023-02-09T06:57:43.237Z,10.77
2023-02-09T07:00:13.805Z,11.10
2023-02-09T07:02:43.054Z,10.60
2023-02-09T07:05:11.489Z,10.27
2023-02-09T07:07:40.056Z,9.70
2023-02-09T07:10:09.977Z,7.65
2023-02-09T07:12:40.566Z,6.90
2023-02-09T07:15:11.445Z,8.10
2023-02-09T07:17:40.219Z,7.43
2023-02-09T07:20:10.136Z,7.90
2023-02-09T07:22:38.540Z,8.75
2023-02-09T07:25:08.000Z,9.20
2023-02-09T07:27:36.330Z,10.10
2023-02-09T07:30:05.011Z,8.18
2023-02-09T07:32:34.739Z,9.38
2023-02-09T07:35:03.125Z,9.20
2023-02-09T07:37:31.506Z,8.63
2023-02-09T07:39:59.903Z,9.38
2023-02-09T07:42:28.181Z,9.68
2023-02-09T07:44:56.502Z,10.18
2023-02-09T07:47:24.743Z,12.18
2023-02-09T07:49:54.407Z,12.25
2023-02-09T07:52:22.643Z,11.82
2023-02-09T07:54:52.899Z,12.77
2023-02-09T07:57:21.157Z,11.77
2023-02-09T07:59:49.419Z,12.73
2023-02-09T08:02:20.282Z,11.75
2023-02-09T08:04:48.605Z,11.30
2023-02-09T08:07:18.427Z,11.90
2023-02-09T08:09:47.093Z,11.95
2023-02-09T08:12:15.467Z,11.98
2023-02-09T08:14:48.310Z,12.35
2023-02-09T08:17:23.154Z,10.82
2023-02-09T08:19:54.892Z,10.88
2023-02-09T08:22:26.324Z,11.38
2023-02-09T08:24:54.788Z,11.48
2023-02-09T08:27:23.245Z,12.10
2023-02-09T08:29:51.602Z,12.27
2023-02-09T08:32:19.897Z,11.55
2023-02-09T08:34:48.159Z,12.20
2023-02-09T08:37:16.404Z,12.68
2023-02-09T08:39:46.761Z,11.93
2023-02-09T08:42:15.031Z,12.95
2023-02-09T08:44:43.350Z,12.63
2023-02-09T08:47:11.656Z,14.43
2023-02-09T08:49:39.988Z,13.82
2023-02-09T08:52:08.906Z,14.07
2023-02-09T08:54:37.629Z,13.60
2023-02-09T08:57:07.268Z,13.45
2023-02-09T08:59:35.561Z,13.27
2023-02-09T09:02:03.833Z,12.68
2023-02-09T09:04:32.397Z,12.93
2023-02-09T09:07:00.758Z,12.90
2023-02-09T09:09:29.010Z,13.00
2023-02-09T09:11:58.102Z,13.32
2023-02-09T09:14:27.757Z,13.18
2023-02-09T09:16:58.258Z,13.57
2023-02-09T09:21:54.521Z,13.20
2023-02-09T09:24:23.822Z,14.50
2023-02-09T09:26:52.076Z,12.65
2023-02-09T09:29:20.349Z,12.82
2023-02-09T09:31:50.209Z,11.98
2023-02-09T09:34:18.498Z,13.48
2023-02-09T09:36:46.749Z,13.90
2023-02-09T09:39:15.223Z,14.38
2023-02-09T09:41:47.723Z,13.15
2023-02-09T09:44:19.048Z,13.48
2023-02-09T09:46:51.113Z,14.43
2023-02-09T09:49:25.655Z,13.77
2023-02-09T09:51:57.715Z,13.13
2023-02-09T09:54:27.135Z,14.45
2023-02-09T09:56:55.776Z,14.80
2023-02-09T09:59:27.315Z,14.73
2023-02-09T10:02:14.824Z,14.90
2023-02-09T10:04:43.099Z,15.23
2023-02-09T10:07:17.023Z,15.95
2023-02-09T10:09:49.562Z,15.02
2023-02-09T10:12:33.819Z,16.75
2023-02-09T10:15:17.858Z,16.20
2023-02-09T10:17:47.518Z,16.38
2023-02-09T10:20:15.779Z,15.63
2023-02-09T10:22:45.503Z,16.15
2023-02-09T10:25:36.605Z,17.00
2023-02-09T10:28:06.482Z,16.70
2023-02-09T10:30:35.269Z,17.58
2023-02-09T10:33:05.103Z,15.38
2023-02-09T10:35:45.065Z,17.02
2023-02-09T10:38:17.507Z,16.45
2023-02-09T10:40:47.542Z,17.33
2023-02-09T10:43:24.030Z,16.98
2023-02-09T10:45:56.805Z,17.25
2023-02-09T10:48:27.611Z,17.20
2023-02-09T10:50:58.468Z,16.27
2023-02-09T10:53:29.025Z,17.08
2023-02-09T10:56:03.448Z,13.27
2023-02-09T10:58:34.102Z,14.80
2023-02-09T11:04:00.207Z,14.10
2023-02-09T11:06:29.146Z,15.50
2023-02-09T11:09:00.744Z,14.45
2023-02-09T11:11:31.595Z,16.20
2023-02-09T11:14:00.357Z,16.77
2023-02-09T11:16:59.290Z,18.67
2023-02-09T11:19:47.679Z,16.77
2023-02-09T11:22:20.647Z,16.33
2023-02-09T11:24:56.495Z,15.38
2023-02-09T11:27:41.879Z,17.05
2023-02-09T11:30:19.373Z,15.15
2023-02-09T11:32:51.920Z,15.60
2023-02-09T11:35:23.704Z,15.10
2023-02-09T11:37:57.465Z,14.48
2023-02-09T11:40:29.407Z,14.25
2023-02-09T11:43:05.885Z,14.13
2023-02-09T11:45:36.786Z,13.20
2023-02-09T11:48:08.689Z,14.25
2023-02-09T11:50:42.286Z,13.32
2023-02-09T11:53:19.557Z,13.15
2023-02-09T11:55:49.784Z,11.02
2023-02-09T11:58:31.071Z,11.60
2023-02-09T12:01:14.808Z,11.63
2023-02-09T12:03:53.717Z,11.93
2023-02-09T12:06:23.737Z,10.70
2023-02-09T12:09:00.118Z,10.85
2023-02-09T12:11:34.446Z,11.32
2023-02-09T12:14:13.646Z,9.50
2023-02-09T12:16:44.849Z,12.85
2023-02-09T12:19:27.543Z,11.52
2023-02-09T12:21:57.160Z,9.10
2023-02-09T12:24:33.902Z,10.40
2023-02-09T12:27:02.683Z,15.70
2023-02-09T12:29:38.971Z,39.65
2023-02-09T12:32:30.815Z,20.92
2023-02-09T12:35:26.008Z,11.70
2023-02-09T12:38:14.253Z,14.13
2023-02-09T12:40:42.658Z,10.10
2023-02-09T12:43:26.340Z,8.80
2023-02-09T12:46:23.551Z,9.75
2023-02-09T12:49:10.768Z,8.43
2023-02-09T12:51:45.661Z,8.70
2023-02-09T12:54:31.739Z,9.13
2023-02-09T12:57:33.372Z,9.35
2023-02-09T13:00:38.098Z,8.50
2023-02-09T13:03:14.185Z,8.30
2023-02-09T13:05:44.741Z,10.20
2023-02-09T13:08:17.615Z,9.32
2023-02-09T13:10:52.209Z,7.95
2023-02-09T13:13:25.072Z,7.75
2023-02-09T13:16:09.685Z,8.10
2023-02-09T13:18:47.300Z,8.27
2023-02-09T13:21:19.052Z,8.48
2023-02-09T13:23:59.714Z,7.53
2023-02-09T13:29:19.922Z,6.95
2023-02-09T13:31:59.000Z,6.55
2023-02-09T13:34:33.039Z,8.77
2023-02-09T13:37:08.681Z,7.80
2023-02-09T13:39:39.634Z,8.43
2023-02-09T13:42:20.920Z,8.18
2023-02-09T13:44:52.193Z,9.50
2023-02-09T13:47:20.700Z,9.07
2023-02-09T13:49:59.912Z,9.35
2023-02-09T13:52:33.832Z,9.02
2023-02-09T13:55:12.612Z,8.82
2023-02-09T13:57:43.708Z,9.50
2023-02-09T14:00:21.662Z,9.40
2023-02-09T14:02:53.624Z,9.00
2023-02-09T14:05:28.189Z,9.27
2023-02-09T14:07:56.927Z,10.98
2023-02-09T14:10:25.853Z,9.88
2023-02-09T14:12:59.959Z,8.77
2023-02-09T14:15:52.566Z,4.10
2023-02-09T14:18:23.950Z,10.15
2023-02-09T14:21:03.084Z,10.23
2023-02-09T14:23:35.173Z,9.95
2023-02-09T14:26:05.710Z,9.98
2023-02-09T14:28:36.337Z,10.50
2023-02-09T14:33:35.054Z,6.53
2023-02-09T14:36:03.412Z,5.32
2023-02-09T14:38:41.934Z,8.20
2023-02-09T14:41:29.832Z,8.05
2023-02-09T14:44:04.177Z,8.77
2023-02-09T14:46:48.502Z,8.50
2023-02-09T14:49:16.991Z,6.40
2023-02-09T14:51:45.618Z,7.72
2023-02-09T14:54:20.242Z,7.18
2023-02-09T14:56:48.707Z,4.47
2023-02-09T14:59:19.406Z,9.75
2023-02-09T15:01:48.901Z,10.02
2023-02-09T15:04:17.254Z,7.63
2023-02-09T15:06:48.810Z,9.73
2023-02-09T15:09:21.371Z,8.40
2023-02-09T15:12:08.031Z,8.70
2023-02-09T15:14:41.810Z,3.15
2023-02-09T15:17:18.324Z,8.50
2023-02-09T15:19:47.182Z,8.20
2023-02-09T15:22:16.688Z,8.98
2023-02-09T15:24:46.165Z,8.97
2023-02-09T15:27:27.227Z,8.80
2023-02-09T15:29:59.699Z,8.43
2023-02-09T15:32:29.470Z,8.63
2023-02-09T15:34:57.724Z,4.63
2023-02-09T15:37:28.268Z,7.85
2023-02-09T15:39:58.277Z,9.15
2023-02-09T15:42:44.243Z,8.10
2023-02-09T15:45:36.014Z,9.05
2023-02-09T15:48:04.976Z,8.15
2023-02-09T15:50:34.392Z,8.48
2023-02-09T15:53:04.435Z,9.13
2023-02-09T15:55:33.015Z,8.52
2023-02-09T15:58:01.438Z,9.73
2023-02-09T16:00:31.982Z,9.05
2023-02-09T16:03:01.410Z,10.00
2023-02-09T16:05:30.803Z,10.35
2023-02-09T16:07:59.821Z,10.70
2023-02-09T16:10:30.095Z,10.10
2023-02-09T16:12:58.640Z,10.52
2023-02-09T16:15:27.712Z,10.95
2023-02-09T16:17:57.291Z,10.48
2023-02-09T16:20:26.383Z,9.60
2023-02-09T16:22:55.898Z,9.63
2023-02-09T16:25:25.654Z,10.23
2023-02-09T16:27:55.122Z,10.53
2023-02-09T16:30:25.914Z,9.88
2023-02-09T16:32:54.868Z,10.07
2023-02-09T16:35:25.503Z,10.65
2023-02-09T16:40:27.923Z,10.15
2023-02-09T16:42:56.814Z,11.50
2023-02-09T16:45:25.368Z,13.35
2023-02-09T16:47:57.163Z,16.30
2023-02-09T16:50:33.104Z,20.50
2023-02-09T16:53:03.334Z,15.48
2023-02-09T16:55:33.482Z,11.65
2023-02-09T16:58:03.836Z,10.68
2023-02-09T17:00:34.486Z,11.15
2023-02-09T17:05:36.185Z,11.93
2023-02-09T17:08:07.798Z,11.88
2023-02-09T17:10:36.389Z,12.10
2023-02-09T17:13:04.821Z,12.10
2023-02-09T17:15:39.352Z,12.27
2023-02-09T17:18:09.313Z,12.55
2023-02-09T17:20:42.238Z,12.85
2023-02-09T17:23:14.993Z,12.48
2023-02-09T17:25:43.493Z,12.57
2023-02-09T17:28:12.577Z,12.35
2023-02-09T17:30:42.663Z,13.20
2023-02-09T17:33:15.581Z,17.65
2023-02-09T17:36:17.443Z,16.20
2023-02-09T17:38:35.665Z,13.02
2023-02-09T17:41:07.377Z,13.13
2023-02-09T17:43:35.651Z,12.95
2023-02-09T17:46:06.119Z,12.55
2023-02-09T17:48:34.574Z,13.18
2023-02-09T17:51:07.048Z,12.73
2023-02-09T17:53:36.114Z,12.55
2023-02-09T17:56:04.641Z,12.75
2023-02-09T17:58:32.982Z,12.82
2023-02-09T18:01:01.350Z,13.27
2023-02-09T18:03:29.685Z,14.38
2023-02-09T18:06:01.539Z,12.73
2023-02-09T18:08:31.377Z,12.35
2023-02-09T18:10:59.692Z,12.67
2023-02-09T18:13:28.142Z,12.63
2023-02-09T18:15:56.521Z,12.70
2023-02-09T18:18:24.925Z,13.55
2023-02-09T18:20:53.381Z,12.70
2023-02-09T18:23:23.123Z,13.85
2023-02-09T18:25:52.880Z,13.20
2023-02-09T18:28:21.289Z,13.75
2023-02-09T18:30:49.752Z,14.10
2023-02-09T18:33:18.910Z,13.80
2023-02-09T18:35:47.602Z,14.75
2023-02-09T18:38:16.411Z,13.98
2023-02-09T18:40:45.070Z,13.48
2023-02-09T18:43:15.849Z,14.40
2023-02-09T18:45:44.559Z,15.00
2023-02-09T18:48:13.443Z,14.40
2023-02-09T18:50:42.016Z,14.90
2023-02-09T18:53:12.475Z,15.70
2023-02-09T18:55:40.843Z,14.85
2023-02-09T18:58:10.307Z,16.75
2023-02-09T19:00:40.018Z,15.25
2023-02-09T19:03:08.318Z,17.97
2023-02-09T19:05:36.722Z,16.33
2023-02-09T19:08:07.360Z,15.98
2023-02-09T19:10:36.120Z,16.10
2023-02-09T19:13:05.025Z,16.48
2023-02-09T19:15:34.371Z,16.73
2023-02-09T19:18:04.299Z,17.00
2023-02-09T19:20:34.251Z,16.25
2023-02-09T19:23:03.850Z,16.95
2023-02-09T19:25:33.253Z,17.07
2023-02-09T19:28:01.663Z,16.27
2023-02-09T19:30:29.997Z,16.33
2023-02-09T19:32:58.774Z,16.25
2023-02-09T19:35:29.375Z,17.42
2023-02-09T19:40:35.483Z,16.55
2023-02-09T19:43:04.781Z,17.42
2023-02-09T19:45:36.551Z,18.08
2023-02-09T19:48:05.392Z,17.30
2023-02-09T19:50:36.642Z,16.20
2023-02-09T19:53:06.325Z,16.40
2023-02-09T19:55:34.878Z,16.47
2023-02-09T19:58:03.258Z,16.00
2023-02-09T20:00:32.868Z,16.50
2023-02-09T20:03:01.312Z,16.33
2023-02-09T20:05:29.721Z,15.77
2023-02-09T20:07:59.418Z,16.52
2023-02-09T20:10:27.873Z,15.90
2023-02-09T20:12:56.170Z,15.00
2023-02-09T20:15:24.493Z,16.58
2023-02-09T20:17:52.979Z,15.57
2023-02-09T20:20:21.353Z,15.07
2023-02-09T20:22:51.115Z,15.38
2023-02-09T20:25:20.843Z,15.80
2023-02-09T20:27:50.308Z,17.20
2023-02-09T20:30:19.035Z,15.90
2023-02-09T20:32:47.409Z,16.67
2023-02-09T20:35:15.856Z,17.98
2023-02-09T20:37:44.315Z,19.02
2023-02-09T20:40:13.071Z,18.45
2023-02-09T20:43:00.342Z,20.10
2023-02-09T20:45:46.405Z,19.08
2023-02-09T20:48:14.732Z,19.77
2023-02-09T20:50:44.928Z,20.17
2023-02-09T20:53:13.625Z,21.05
2023-02-09T20:55:42.873Z,21.27
2023-02-09T20:58:13.780Z,22.38
2023-02-09T21:00:42.705Z,22.35
2023-02-09T21:03:11.151Z,21.55
2023-02-09T21:05:39.463Z,23.60
2023-02-09T21:08:09.199Z,20.52
2023-02-09T21:10:38.523Z,20.63
2023-02-09T21:13:07.934Z,19.20
2023-02-09T21:15:41.841Z,18.55
2023-02-09T21:18:10.124Z,18.10
2023-02-09T21:20:39.263Z,19.52
2023-02-09T21:23:07.498Z,18.52
2023-02-09T21:25:36.618Z,20.50
2023-02-09T21:28:05.181Z,20.70
2023-02-09T21:30:33.841Z,21.83
2023-02-09T21:33:03.451Z,22.02
2023-02-09T21:35:31.823Z,23.33
2023-02-09T21:38:00.111Z,22.10
2023-02-09T21:40:28.422Z,20.88
2023-02-09T21:42:56.656Z,18.90
2023-02-09T21:45:26.314Z,20.63
2023-02-09T21:47:54.646Z,19.00
2023-02-09T21:50:24.281Z,19.20
2023-02-09T21:52:54.621Z,19.30
2023-02-09T21:55:23.263Z,19.85
2023-02-09T21:57:51.615Z,19.70
2023-02-09T22:00:20.246Z,19.05
2023-02-09T22:02:52.949Z,20.25
2023-02-09T22:05:21.522Z,19.35
2023-02-09T22:07:51.625Z,20.08
2023-02-09T22:10:19.994Z,21.05
2023-02-09T22:12:48.301Z,18.88
2023-02-09T22:15:18.045Z,21.02
2023-02-09T22:17:47.985Z,21.55
2023-02-09T22:20:16.258Z,21.80
2023-02-09T22:22:45.958Z,20.92
2023-02-09T22:25:15.793Z,22.17
2023-02-09T22:27:44.089Z,21.83
2023-02-09T22:30:12.930Z,21.52
2023-02-09T22:32:41.411Z,21.10
2023-02-09T22:35:09.953Z,23.33
2023-02-09T22:37:38.299Z,24.83
2023-02-09T22:40:07.157Z,23.75
2023-02-09T22:42:36.833Z,24.92
2023-02-09T22:45:05.759Z,26.17
2023-02-09T22:47:34.858Z,24.30
2023-02-09T22:50:03.215Z,23.45
2023-02-09T22:52:31.561Z,24.33
2023-02-09T22:54:59.864Z,23.30
2023-02-09T22:57:28.332Z,23.70
2023-02-09T22:59:57.987Z,24.58
2023-02-09T23:02:26.533Z,23.95
2023-02-09T23:04:54.831Z,20.92
2023-02-09T23:07:23.127Z,22.83
2023-02-09T23:09:51.442Z,22.75
2023-02-09T23:12:19.832Z,23.35
2023-02-09T23:14:48.137Z,24.20
2023-02-09T23:17:17.865Z,24.17
2023-02-09T23:19:46.240Z,26.00
2023-02-09T23:22:14.575Z,24.35
2023-02-09T23:24:43.132Z,23.90
2023-02-09T23:27:11.450Z,23.55
2023-02-09T23:29:39.754Z,22.33
2023-02-09T23:32:08.080Z,23.52
2023-02-09T23:34:37.826Z,23.10
2023-02-09T23:37:13.764Z,24.33
2023-02-09T23:39:51.962Z,22.05
2023-02-09T23:42:20.358Z,21.92
2023-02-09T23:44:48.685Z,21.85
2023-02-09T23:47:17.201Z,22.00
2023-02-09T23:49:46.905Z,21.35
2023-02-09T23:52:15.234Z,20.83
2023-02-09T23:54:43.805Z,20.58
2023-02-09T23:57:12.143Z,20.70
2023-02-09T23:59:40.750Z,22.48
